Fallsington, Pennsylvania
Current Conditions -  °F | °C
As of 4:53 AM on Thursday 18 Dec 2014 (Local Time) from KTTN Reporting Station
Clear Clear  
Wind Chill: 28°   Ceiling: Unl
Heat Index: 35°   Visibility: 10mi
Dew Point: 20°   Wind: 9mph
Humidity: 54%   Direction: 300°WNW
Pressure: 29.98"   Gusts: 18mph
Location:  40.1722°N, 74.822°W
Report Text: KTTN 180953Z AUTO 30008G16KT 10SM CLR 02/M07 A2998 RMK AO2 SLP146 T00171067
Loading
Personal Weather Stations






























Interactive Weather Map New forecast layout! Learn more

10-Day Weather Forecast

Advertisements
Track Severe Weather on mobile